createdAt,value
2022-12-23T00:01:01.707Z,9.10
2022-12-23T00:03:29.647Z,9.20
2022-12-23T00:05:57.160Z,9.30
2022-12-23T00:08:25.329Z,9.30
2022-12-23T00:10:53.716Z,9.30
2022-12-23T00:13:38.899Z,9.40
2022-12-23T00:16:13.536Z,9.50
2022-12-23T00:18:41.172Z,9.50
2022-12-23T00:21:13.229Z,9.60
2022-12-23T00:23:42.681Z,9.70
2022-12-23T00:26:15.466Z,9.80
2022-12-23T00:28:42.581Z,10.00
2022-12-23T00:31:10.041Z,10.10
2022-12-23T00:33:42.986Z,10.20
2022-12-23T00:36:24.218Z,10.30
2022-12-23T00:39:10.371Z,10.30
2022-12-23T00:41:56.343Z,10.40
2022-12-23T00:44:23.307Z,10.40
2022-12-23T00:46:50.296Z,10.40
2022-12-23T00:49:37.659Z,10.40
2022-12-23T00:52:06.266Z,10.50
2022-12-23T00:54:33.050Z,10.40
2022-12-23T00:57:00.515Z,10.50
2022-12-23T00:59:27.185Z,10.50
2022-12-23T01:02:13.009Z,10.50
2022-12-23T01:04:58.452Z,10.50
2022-12-23T01:07:25.645Z,10.50
2022-12-23T01:09:52.339Z,10.50
2022-12-23T01:12:19.097Z,10.60
2022-12-23T01:14:45.762Z,10.40
2022-12-23T01:17:12.534Z,10.40
2022-12-23T01:19:39.324Z,10.40
2022-12-23T01:22:06.083Z,10.50
2022-12-23T01:24:33.618Z,10.50
2022-12-23T01:27:00.559Z,10.50
2022-12-23T01:29:27.635Z,10.50
2022-12-23T01:31:54.374Z,10.50
2022-12-23T01:34:21.188Z,10.50
2022-12-23T01:36:47.883Z,10.50
2022-12-23T01:39:14.589Z,10.50
2022-12-23T01:41:59.878Z,10.60
2022-12-23T01:44:56.656Z,10.50
2022-12-23T01:47:35.786Z,10.60
2022-12-23T01:50:28.140Z,10.60
2022-12-23T01:53:20.801Z,10.60
2022-12-23T01:56:06.233Z,10.50
2022-12-23T01:58:37.932Z,10.50
2022-12-23T02:01:24.871Z,10.50
2022-12-23T02:03:55.764Z,10.50
2022-12-23T02:06:50.592Z,10.60
2022-12-23T02:09:21.279Z,10.60
2022-12-23T02:12:06.811Z,10.60
2022-12-23T02:15:20.818Z,10.60
2022-12-23T02:18:14.869Z,10.60
2022-12-23T02:20:59.492Z,10.60
2022-12-23T02:23:47.306Z,10.60
2022-12-23T02:26:28.405Z,10.60
2022-12-23T02:29:23.011Z,10.50
2022-12-23T02:31:57.466Z,10.50
2022-12-23T02:34:44.329Z,10.50
2022-12-23T02:37:20.814Z,10.40
2022-12-23T02:40:13.088Z,10.50
2022-12-23T02:43:06.780Z,10.40
2022-12-23T02:45:43.308Z,10.50
2022-12-23T02:48:20.323Z,10.40
2022-12-23T02:50:48.895Z,10.50
2022-12-23T02:53:42.392Z,10.50
2022-12-23T02:56:11.502Z,10.40
2022-12-23T02:58:55.652Z,10.50
2022-12-23T03:01:26.031Z,10.40
2022-12-23T03:03:53.042Z,10.50
2022-12-23T03:06:27.989Z,10.50
2022-12-23T03:08:58.067Z,10.40
2022-12-23T03:11:40.232Z,10.50
2022-12-23T03:14:29.198Z,10.50
2022-12-23T03:17:14.387Z,10.40
2022-12-23T03:19:43.863Z,10.40
2022-12-23T03:22:22.619Z,10.40
2022-12-23T03:25:08.650Z,10.40
2022-12-23T03:27:45.481Z,10.40
2022-12-23T03:30:16.661Z,10.40
2022-12-23T03:32:46.410Z,10.40
2022-12-23T03:35:17.590Z,10.40
2022-12-23T03:37:49.012Z,10.40
2022-12-23T03:40:20.919Z,10.40
2022-12-23T03:42:52.253Z,10.40
2022-12-23T03:45:41.341Z,10.30
2022-12-23T03:48:22.506Z,10.30
2022-12-23T03:50:54.496Z,10.30
2022-12-23T03:53:25.910Z,10.30
2022-12-23T03:55:59.107Z,10.20
2022-12-23T03:58:51.961Z,10.20
2022-12-23T04:01:27.387Z,10.20
2022-12-23T04:04:15.782Z,10.20
2022-12-23T04:06:51.488Z,10.10
2022-12-23T04:09:22.419Z,10.10
2022-12-23T04:11:50.241Z,10.10
2022-12-23T04:14:18.579Z,10.00
2022-12-23T04:16:46.416Z,10.00
2022-12-23T04:19:13.159Z,10.00
2022-12-23T04:21:39.793Z,10.00
2022-12-23T04:24:06.907Z,10.00
2022-12-23T04:26:33.546Z,10.00
2022-12-23T04:29:00.180Z,10.00
2022-12-23T04:31:26.918Z,9.90
2022-12-23T04:33:53.662Z,9.90
2022-12-23T04:36:20.394Z,9.80
2022-12-23T04:38:47.033Z,9.90
2022-12-23T04:41:13.692Z,9.90
2022-12-23T04:43:40.315Z,10.00
2022-12-23T04:46:07.044Z,10.00
2022-12-23T04:48:33.804Z,10.00
2022-12-23T04:51:02.883Z,10.10
2022-12-23T04:53:29.659Z,10.10
2022-12-23T04:55:56.316Z,10.00
2022-12-23T04:58:24.984Z,10.00
2022-12-23T05:01:04.917Z,10.00
2022-12-23T05:03:31.912Z,10.00
2022-12-23T05:05:58.772Z,10.00
2022-12-23T05:08:25.507Z,10.00
2022-12-23T05:10:52.197Z,10.00
2022-12-23T05:13:19.064Z,10.10
2022-12-23T05:15:49.864Z,10.10
2022-12-23T05:18:16.792Z,10.10
2022-12-23T05:20:43.958Z,10.10
2022-12-23T05:23:10.887Z,10.10
2022-12-23T05:25:38.805Z,10.00
2022-12-23T05:28:07.983Z,10.00
2022-12-23T05:30:34.864Z,10.00
2022-12-23T05:33:01.681Z,10.00
2022-12-23T05:35:28.753Z,10.00
2022-12-23T05:37:55.500Z,10.00
2022-12-23T05:40:23.842Z,10.00
2022-12-23T05:42:53.882Z,10.00
2022-12-23T05:45:20.860Z,10.10
2022-12-23T05:47:47.534Z,10.10
2022-12-23T05:50:14.441Z,10.00
2022-12-23T05:52:41.106Z,10.00
2022-12-23T05:55:08.618Z,10.00
2022-12-23T05:57:35.345Z,10.00
2022-12-23T06:00:03.755Z,10.00
2022-12-23T06:02:30.509Z,10.10
2022-12-23T06:04:57.355Z,10.10
2022-12-23T06:07:24.046Z,10.20
2022-12-23T06:09:50.703Z,10.20
2022-12-23T06:12:17.395Z,10.20
2022-12-23T06:14:44.027Z,10.20
2022-12-23T06:17:10.678Z,10.20
2022-12-23T06:19:37.369Z,10.20
2022-12-23T06:22:04.052Z,10.20
2022-12-23T06:24:30.743Z,10.20
2022-12-23T06:26:57.719Z,10.20
2022-12-23T06:29:24.962Z,10.30
2022-12-23T06:31:51.806Z,10.30
2022-12-23T06:34:18.616Z,10.30
2022-12-23T06:36:45.337Z,10.30
2022-12-23T06:39:12.031Z,10.30
2022-12-23T06:41:38.758Z,10.30
2022-12-23T06:44:05.772Z,10.30
2022-12-23T06:46:32.573Z,10.30
2022-12-23T06:48:59.311Z,10.30
2022-12-23T06:51:25.954Z,10.30
2022-12-23T06:53:52.667Z,10.30
2022-12-23T06:56:19.623Z,10.30
2022-12-23T06:58:46.405Z,10.30
2022-12-23T07:01:13.425Z,10.30
2022-12-23T07:03:40.254Z,10.30
2022-12-23T07:06:07.315Z,10.30
2022-12-23T07:08:33.921Z,10.30
2022-12-23T07:11:01.387Z,10.20
2022-12-23T07:13:28.183Z,10.10
2022-12-23T07:15:54.927Z,10.10
2022-12-23T07:18:23.220Z,10.00
2022-12-23T07:20:50.555Z,10.00
2022-12-23T07:23:17.450Z,9.90
2022-12-23T07:25:44.386Z,9.90
2022-12-23T07:28:11.021Z,9.90
2022-12-23T07:30:37.717Z,9.80
2022-12-23T07:33:04.391Z,9.80
2022-12-23T07:35:31.085Z,9.80
2022-12-23T07:37:58.045Z,9.80
2022-12-23T07:40:25.367Z,9.80
2022-12-23T07:42:57.865Z,9.80
2022-12-23T07:45:25.795Z,9.90
2022-12-23T07:47:54.469Z,9.90
2022-12-23T07:50:21.996Z,9.90
2022-12-23T07:52:48.741Z,9.80
2022-12-23T07:55:15.700Z,9.80
2022-12-23T07:57:42.476Z,9.90
2022-12-23T08:00:11.501Z,9.90
2022-12-23T08:02:38.707Z,9.90
2022-12-23T08:05:06.279Z,9.90
2022-12-23T08:07:33.039Z,9.90
2022-12-23T08:09:59.746Z,9.90
2022-12-23T08:12:26.598Z,9.90
2022-12-23T08:14:53.320Z,10.00
2022-12-23T08:17:23.636Z,10.00
2022-12-23T08:19:50.452Z,10.00
2022-12-23T08:22:17.365Z,10.00
2022-12-23T08:24:44.203Z,10.10
2022-12-23T08:27:11.017Z,10.10
2022-12-23T08:29:40.148Z,10.10
2022-12-23T08:32:07.587Z,10.20
2022-12-23T08:34:34.602Z,10.30
2022-12-23T08:37:01.589Z,10.30
2022-12-23T08:39:28.676Z,10.40
2022-12-23T08:41:55.385Z,10.60
2022-12-23T08:44:22.803Z,10.60
2022-12-23T08:46:49.580Z,10.70
2022-12-23T08:49:16.294Z,10.80
2022-12-23T08:51:43.027Z,11.00
2022-12-23T08:54:10.281Z,11.10
2022-12-23T08:56:40.545Z,11.20
2022-12-23T08:59:18.078Z,11.20
2022-12-23T09:01:45.871Z,11.20
2022-12-23T09:04:12.699Z,11.20
2022-12-23T09:06:42.360Z,11.20
2022-12-23T09:09:10.877Z,11.30
2022-12-23T09:11:38.156Z,11.30
2022-12-23T09:14:05.572Z,11.30
2022-12-23T09:16:32.454Z,11.30
2022-12-23T09:18:59.322Z,11.30
2022-12-23T09:21:26.259Z,11.30
2022-12-23T09:23:53.332Z,11.20
2022-12-23T09:26:23.433Z,11.10
2022-12-23T09:28:50.549Z,11.20
2022-12-23T09:31:17.284Z,11.20
2022-12-23T09:33:47.885Z,11.20
2022-12-23T09:36:14.594Z,11.30
2022-12-23T09:38:41.608Z,11.30
2022-12-23T09:41:26.127Z,11.20
2022-12-23T09:44:27.389Z,11.30
2022-12-23T09:46:59.915Z,11.30
2022-12-23T09:49:27.797Z,11.40
2022-12-23T09:52:00.276Z,11.30
2022-12-23T09:54:29.423Z,11.30
2022-12-23T09:57:02.603Z,11.30
2022-12-23T10:00:07.795Z,11.40
2022-12-23T10:02:53.357Z,11.40
2022-12-23T10:05:35.284Z,11.40
2022-12-23T10:08:30.075Z,11.50
2022-12-23T10:11:07.661Z,11.50
2022-12-23T10:13:41.123Z,11.50
2022-12-23T10:16:23.263Z,11.60
2022-12-23T10:19:11.709Z,11.60
2022-12-23T10:21:46.864Z,11.60
2022-12-23T10:24:27.621Z,11.60
2022-12-23T10:27:04.646Z,11.60
2022-12-23T10:29:33.496Z,11.60
2022-12-23T10:32:31.451Z,11.50
2022-12-23T10:35:06.774Z,11.50
2022-12-23T10:37:55.123Z,11.40
2022-12-23T10:40:32.485Z,11.40
2022-12-23T10:43:23.922Z,11.40
2022-12-23T10:46:02.695Z,11.40
2022-12-23T10:49:05.886Z,11.40
2022-12-23T10:51:41.677Z,11.40
2022-12-23T10:54:17.500Z,11.50
2022-12-23T10:56:44.539Z,11.60
2022-12-23T10:59:15.769Z,11.50
2022-12-23T11:01:47.716Z,11.60
2022-12-23T11:04:17.933Z,11.60
2022-12-23T11:06:52.847Z,11.60
2022-12-23T11:09:37.812Z,11.60
2022-12-23T11:12:09.637Z,11.60
2022-12-23T11:14:42.706Z,11.60
2022-12-23T11:17:26.088Z,11.60
2022-12-23T11:20:11.054Z,11.70
2022-12-23T11:22:53.019Z,11.70
2022-12-23T11:25:29.038Z,11.80
2022-12-23T11:28:17.414Z,11.80
2022-12-23T11:30:57.165Z,11.80
2022-12-23T11:33:33.653Z,11.90
2022-12-23T11:36:01.802Z,11.80
2022-12-23T11:38:29.205Z,11.80
2022-12-23T11:40:56.233Z,11.90
2022-12-23T11:43:24.689Z,11.90
2022-12-23T11:46:31.701Z,12.00
2022-12-23T11:49:26.169Z,12.10
2022-12-23T11:52:01.907Z,12.10
2022-12-23T11:54:29.415Z,12.20
2022-12-23T11:56:56.875Z,12.20
2022-12-23T11:59:39.624Z,12.20
2022-12-23T12:02:23.841Z,12.10
2022-12-23T12:05:03.755Z,12.10
2022-12-23T12:07:31.448Z,12.10
2022-12-23T12:09:59.947Z,12.10
2022-12-23T12:12:27.518Z,12.10
2022-12-23T12:14:57.246Z,12.10
2022-12-23T12:17:46.970Z,12.00
2022-12-23T12:20:35.689Z,12.00
2022-12-23T12:23:20.528Z,12.00
2022-12-23T12:25:53.119Z,11.90
2022-12-23T12:28:32.658Z,11.90
2022-12-23T12:31:05.703Z,12.00
2022-12-23T12:34:11.809Z,12.00
2022-12-23T12:36:55.874Z,12.10
2022-12-23T12:39:36.237Z,12.10
2022-12-23T12:42:32.567Z,12.10
2022-12-23T12:45:23.699Z,12.10
2022-12-23T12:48:18.530Z,12.10
2022-12-23T12:51:24.530Z,12.10
2022-12-23T12:54:05.125Z,12.10
2022-12-23T12:56:43.983Z,12.10
2022-12-23T12:59:20.805Z,12.00
2022-12-23T13:02:13.430Z,12.00
2022-12-23T13:04:46.189Z,11.90
2022-12-23T13:07:15.801Z,11.90
2022-12-23T13:10:23.767Z,11.90
2022-12-23T13:13:22.684Z,11.80
2022-12-23T13:16:11.093Z,11.90
2022-12-23T13:18:51.849Z,11.90
2022-12-23T13:21:23.837Z,11.80
2022-12-23T13:24:03.426Z,11.70
2022-12-23T13:26:45.993Z,11.70
2022-12-23T13:29:29.781Z,11.70
2022-12-23T13:32:16.957Z,11.60
2022-12-23T13:35:00.496Z,11.60
2022-12-23T13:37:44.016Z,11.60
2022-12-23T13:40:22.604Z,11.70
2022-12-23T13:42:55.719Z,11.60
2022-12-23T13:45:26.212Z,11.70
2022-12-23T13:48:14.875Z,11.70
2022-12-23T13:50:59.860Z,11.70
2022-12-23T13:53:38.267Z,11.70
2022-12-23T13:56:11.032Z,11.60
2022-12-23T13:58:38.965Z,11.60
2022-12-23T14:01:08.700Z,11.60
2022-12-23T14:03:37.880Z,11.60
2022-12-23T14:06:22.339Z,11.60
2022-12-23T14:08:49.641Z,11.60
2022-12-23T14:11:24.928Z,11.60
2022-12-23T14:13:51.680Z,11.70
2022-12-23T14:16:27.461Z,11.70
2022-12-23T14:19:09.249Z,11.70
2022-12-23T14:22:00.087Z,11.70
2022-12-23T14:24:45.006Z,11.80
2022-12-23T14:27:36.850Z,11.70
2022-12-23T14:30:12.857Z,11.70
2022-12-23T14:32:52.545Z,11.80
2022-12-23T14:35:28.152Z,11.80
2022-12-23T14:38:16.067Z,11.80
2022-12-23T14:40:42.672Z,11.80
2022-12-23T14:43:46.335Z,11.80
2022-12-23T14:46:34.890Z,11.80
2022-12-23T14:49:29.954Z,11.70
2022-12-23T14:51:51.366Z,11.70
2022-12-23T14:54:36.483Z,11.80
2022-12-23T14:57:14.173Z,11.80
2022-12-23T15:00:16.155Z,11.90
2022-12-23T15:02:42.977Z,11.90
2022-12-23T15:05:10.260Z,11.90
2022-12-23T15:07:40.679Z,11.90
2022-12-23T15:10:07.721Z,12.00
2022-12-23T15:12:37.415Z,12.00
2022-12-23T15:15:31.183Z,12.00
2022-12-23T15:18:05.877Z,12.00
2022-12-23T15:20:33.166Z,12.00
2022-12-23T15:23:01.456Z,12.00
2022-12-23T15:25:34.596Z,12.00
2022-12-23T15:28:03.604Z,12.00
2022-12-23T15:30:57.549Z,11.90
2022-12-23T15:34:01.438Z,12.00
2022-12-23T15:36:30.688Z,12.10
2022-12-23T15:38:59.487Z,12.10
2022-12-23T15:41:26.341Z,12.10
2022-12-23T15:43:57.460Z,12.10
2022-12-23T15:46:29.801Z,12.00
2022-12-23T15:48:57.086Z,11.90
2022-12-23T15:52:05.638Z,11.80
2022-12-23T15:54:32.395Z,11.80
2022-12-23T15:57:00.905Z,11.70
2022-12-23T15:59:37.928Z,11.80
2022-12-23T16:05:08.663Z,11.70
2022-12-23T16:07:41.252Z,11.70
2022-12-23T16:10:19.804Z,11.70
2022-12-23T16:12:50.129Z,11.70
2022-12-23T16:15:31.831Z,11.70
2022-12-23T16:18:25.567Z,11.70
2022-12-23T16:21:04.146Z,11.70
2022-12-23T16:23:37.134Z,11.70
2022-12-23T16:26:04.259Z,11.70
2022-12-23T16:28:40.364Z,11.70
2022-12-23T16:31:08.205Z,11.80
2022-12-23T16:33:51.476Z,11.70
2022-12-23T16:36:27.450Z,11.80
2022-12-23T16:38:59.932Z,11.80
2022-12-23T16:41:26.813Z,11.80
2022-12-23T16:43:53.562Z,11.80
2022-12-23T16:46:22.465Z,11.90
2022-12-23T16:48:58.477Z,11.90
2022-12-23T16:51:27.142Z,11.90
2022-12-23T16:53:56.718Z,11.90
2022-12-23T16:56:28.079Z,12.00
2022-12-23T16:58:54.864Z,11.90
2022-12-23T17:01:33.816Z,11.90
2022-12-23T17:04:01.012Z,11.90
2022-12-23T17:06:28.285Z,11.90
2022-12-23T17:08:56.574Z,12.00
2022-12-23T17:11:31.297Z,11.90
2022-12-23T17:14:03.916Z,12.10
2022-12-23T17:16:31.701Z,12.00
2022-12-23T17:18:58.998Z,12.00
2022-12-23T17:21:39.018Z,12.00
2022-12-23T17:24:10.469Z,12.00
2022-12-23T17:26:37.285Z,12.10
2022-12-23T17:29:05.311Z,12.10
2022-12-23T17:31:33.853Z,12.10
2022-12-23T17:34:01.161Z,12.00
2022-12-23T17:36:28.083Z,12.00
2022-12-23T17:38:54.917Z,12.00
2022-12-23T17:41:31.082Z,12.00
2022-12-23T17:43:58.612Z,12.00
2022-12-23T17:46:26.889Z,12.00
2022-12-23T17:48:53.769Z,12.00
2022-12-23T17:51:22.636Z,12.10
2022-12-23T17:53:56.923Z,12.10
2022-12-23T17:56:24.924Z,12.00
2022-12-23T17:58:52.002Z,11.80
2022-12-23T18:01:20.739Z,11.70
2022-12-23T18:03:47.527Z,11.50
2022-12-23T18:06:20.567Z,11.50
2022-12-23T18:08:47.953Z,11.40
2022-12-23T18:11:33.580Z,11.40
2022-12-23T18:14:00.745Z,11.40
2022-12-23T18:16:27.519Z,11.40
2022-12-23T18:18:54.255Z,11.30
2022-12-23T18:21:24.726Z,11.30
2022-12-23T18:23:53.421Z,11.30
2022-12-23T18:26:20.328Z,11.20
2022-12-23T18:28:47.081Z,11.20
2022-12-23T18:31:20.992Z,11.10
2022-12-23T18:33:47.868Z,11.10
2022-12-23T18:36:31.175Z,11.10
2022-12-23T18:38:57.909Z,11.10
2022-12-23T18:41:26.338Z,11.10
2022-12-23T18:43:53.741Z,11.10
2022-12-23T18:46:21.106Z,11.10
2022-12-23T18:48:48.316Z,11.30
2022-12-23T18:51:20.511Z,11.30
2022-12-23T18:53:47.863Z,11.30
2022-12-23T18:56:16.071Z,11.30
2022-12-23T18:58:43.200Z,11.30
2022-12-23T19:01:14.449Z,11.20
2022-12-23T19:03:41.569Z,11.30
2022-12-23T19:06:09.563Z,11.20
2022-12-23T19:08:37.386Z,11.20
2022-12-23T19:11:17.962Z,11.20
2022-12-23T19:13:45.257Z,11.10
2022-12-23T19:16:15.004Z,11.10
2022-12-23T19:18:42.091Z,11.10
2022-12-23T19:21:09.395Z,11.10
2022-12-23T19:23:36.271Z,11.20
2022-12-23T19:26:05.825Z,11.20
2022-12-23T19:28:33.539Z,11.20
2022-12-23T19:31:00.390Z,11.20
2022-12-23T19:33:27.111Z,11.20
2022-12-23T19:35:53.775Z,11.20
2022-12-23T19:38:20.438Z,11.20
2022-12-23T19:40:57.441Z,11.10
2022-12-23T19:43:24.242Z,11.20
2022-12-23T19:46:02.769Z,11.20
2022-12-23T19:48:30.213Z,11.10
2022-12-23T19:50:58.624Z,11.00
2022-12-23T19:53:26.104Z,11.00
2022-12-23T19:56:00.947Z,10.90
2022-12-23T19:58:28.898Z,10.80
2022-12-23T20:01:06.409Z,10.80
2022-12-23T20:03:33.571Z,10.80
2022-12-23T20:06:00.288Z,10.70
2022-12-23T20:08:26.977Z,10.70
2022-12-23T20:11:08.258Z,10.60
2022-12-23T20:13:36.038Z,10.60
2022-12-23T20:16:03.477Z,10.50
2022-12-23T20:18:30.303Z,10.50
2022-12-23T20:20:58.250Z,10.40
2022-12-23T20:23:25.227Z,10.40
2022-12-23T20:25:51.921Z,10.40
2022-12-23T20:28:18.626Z,10.40
2022-12-23T20:30:48.123Z,10.30
2022-12-23T20:33:15.624Z,10.30
2022-12-23T20:35:42.397Z,10.20
2022-12-23T20:38:09.080Z,10.30
2022-12-23T20:40:35.729Z,10.30
2022-12-23T20:43:03.385Z,10.30
2022-12-23T20:45:30.685Z,10.30
2022-12-23T20:47:57.657Z,10.30
2022-12-23T20:50:24.363Z,10.40
2022-12-23T20:52:51.055Z,10.30
2022-12-23T20:55:17.781Z,10.30
2022-12-23T20:57:45.607Z,10.30
2022-12-23T21:00:13.031Z,10.30
2022-12-23T21:02:40.723Z,10.30
2022-12-23T21:05:07.805Z,10.20
2022-12-23T21:07:34.490Z,10.20
2022-12-23T21:10:01.230Z,10.20
2022-12-23T21:12:27.910Z,10.20
2022-12-23T21:14:54.586Z,10.10
2022-12-23T21:17:23.159Z,10.10
2022-12-23T21:19:49.873Z,10.10
2022-12-23T21:22:16.533Z,10.20
2022-12-23T21:24:43.277Z,10.20
2022-12-23T21:27:09.942Z,10.10
2022-12-23T21:29:36.586Z,10.10
2022-12-23T21:32:03.465Z,10.10
2022-12-23T21:34:30.265Z,10.10
2022-12-23T21:36:56.959Z,10.10
2022-12-23T21:39:23.798Z,10.10
2022-12-23T21:41:51.343Z,10.10
2022-12-23T21:44:18.300Z,10.20
2022-12-23T21:46:45.085Z,10.20
2022-12-23T21:49:12.966Z,10.20
2022-12-23T21:51:41.306Z,10.20
2022-12-23T21:54:10.926Z,10.20
2022-12-23T21:56:38.702Z,10.30
2022-12-23T21:59:08.509Z,10.30
2022-12-23T22:01:35.592Z,10.30
2022-12-23T22:04:02.584Z,10.20
2022-12-23T22:06:32.046Z,10.20
2022-12-23T22:08:59.798Z,10.10
2022-12-23T22:11:29.563Z,10.20
2022-12-23T22:13:58.277Z,10.20
2022-12-23T22:16:26.740Z,10.20
2022-12-23T22:18:53.962Z,10.20
2022-12-23T22:21:23.006Z,10.20
2022-12-23T22:23:51.019Z,10.30
2022-12-23T22:26:25.244Z,10.20
2022-12-23T22:28:54.859Z,10.20
2022-12-23T22:31:25.981Z,10.20
2022-12-23T22:33:52.696Z,10.20
2022-12-23T22:36:20.025Z,10.20
2022-12-23T22:38:53.027Z,10.20
2022-12-23T22:52:13.611Z,10.00
2022-12-23T22:54:40.345Z,10.00
2022-12-23T22:57:07.142Z,10.00
2022-12-23T22:59:33.899Z,10.00
2022-12-23T23:02:00.618Z,10.00
2022-12-23T23:04:27.390Z,10.00
2022-12-23T23:06:54.087Z,10.00
2022-12-23T23:09:22.069Z,10.00
2022-12-23T23:11:49.839Z,10.00
2022-12-23T23:14:18.584Z,10.00
2022-12-23T23:16:45.325Z,10.00
2022-12-23T23:19:13.499Z,10.00
2022-12-23T23:21:40.186Z,10.00
2022-12-23T23:24:07.355Z,9.90
2022-12-23T23:26:34.060Z,9.90
2022-12-23T23:29:00.778Z,9.90
2022-12-23T23:31:43.993Z,10.00
2022-12-23T23:34:12.170Z,9.90
2022-12-23T23:36:39.132Z,10.00
2022-12-23T23:39:05.950Z,10.00
2022-12-23T23:41:32.671Z,10.10
2022-12-23T23:43:59.383Z,10.10
2022-12-23T23:46:26.155Z,10.00
2022-12-23T23:48:52.884Z,10.10
2022-12-23T23:51:19.590Z,10.10
2022-12-23T23:53:46.337Z,10.10
2022-12-23T23:56:13.156Z,10.20
2022-12-23T23:58:39.828Z,10.10
